sensor_id;sensor_type;location;lat;lon;timestamp;P1;durP1;ratioP1;P2;durP2;ratioP2
52798;SDS011;38667;42.872;74.622;2022-11-20T00:01:41;19.58;;;11.32;;
52798;SDS011;38667;42.872;74.622;2022-11-20T00:04:08;23.52;;;14.02;;
52798;SDS011;38667;42.872;74.622;2022-11-20T00:06:35;31.17;;;14.27;;
52798;SDS011;38667;42.872;74.622;2022-11-20T00:09:02;28.33;;;15.50;;
52798;SDS011;38667;42.872;74.622;2022-11-20T00:11:29;32.70;;;15.75;;
52798;SDS011;38667;42.872;74.622;2022-11-20T00:13:56;31.63;;;16.47;;
52798;SDS011;38667;42.872;74.622;2022-11-20T00:16:26;29.63;;;16.02;;
52798;SDS011;38667;42.872;74.622;2022-11-20T00:18:53;30.45;;;15.85;;
52798;SDS011;38667;42.872;74.622;2022-11-20T00:21:20;22.10;;;12.50;;
52798;SDS011;38667;42.872;74.622;2022-11-20T00:23:48;26.30;;;14.02;;
52798;SDS011;38667;42.872;74.622;2022-11-20T00:26:16;25.20;;;14.57;;
52798;SDS011;38667;42.872;74.622;2022-11-20T00:28:48;26.27;;;14.75;;
52798;SDS011;38667;42.872;74.622;2022-11-20T00:31:15;27.17;;;14.73;;
52798;SDS011;38667;42.872;74.622;2022-11-20T00:33:43;21.60;;;13.30;;
52798;SDS011;38667;42.872;74.622;2022-11-20T00:36:11;26.05;;;13.90;;
52798;SDS011;38667;42.872;74.622;2022-11-20T00:38:39;26.23;;;15.15;;
52798;SDS011;38667;42.872;74.622;2022-11-20T00:41:06;29.70;;;16.20;;
52798;SDS011;38667;42.872;74.622;2022-11-20T00:43:33;31.45;;;16.63;;
52798;SDS011;38667;42.872;74.622;2022-11-20T00:46:00;28.88;;;16.15;;
52798;SDS011;38667;42.872;74.622;2022-11-20T00:48:28;54.45;;;28.23;;
52798;SDS011;38667;42.872;74.622;2022-11-20T00:50:56;44.15;;;24.55;;
52798;SDS011;38667;42.872;74.622;2022-11-20T00:53:22;42.08;;;23.35;;
52798;SDS011;38667;42.872;74.622;2022-11-20T00:55:55;40.72;;;21.05;;
52798;SDS011;38667;42.872;74.622;2022-11-20T00:58:22;36.88;;;19.67;;
52798;SDS011;38667;42.872;74.622;2022-11-20T01:00:49;30.90;;;16.98;;
52798;SDS011;38667;42.872;74.622;2022-11-20T01:03:16;33.55;;;18.25;;
52798;SDS011;38667;42.872;74.622;2022-11-20T01:05:42;27.35;;;14.90;;
52798;SDS011;38667;42.872;74.622;2022-11-20T01:08:10;21.98;;;13.85;;
52798;SDS011;38667;42.872;74.622;2022-11-20T01:10:36;27.80;;;14.77;;
52798;SDS011;38667;42.872;74.622;2022-11-20T01:13:03;33.90;;;20.02;;
52798;SDS011;38667;42.872;74.622;2022-11-20T01:15:29;34.08;;;19.88;;
52798;SDS011;38667;42.872;74.622;2022-11-20T01:17:55;32.00;;;21.02;;
52798;SDS011;38667;42.872;74.622;2022-11-20T01:20:21;35.13;;;20.95;;
52798;SDS011;38667;42.872;74.622;2022-11-20T01:22:48;33.75;;;19.55;;
52798;SDS011;38667;42.872;74.622;2022-11-20T01:25:15;32.50;;;18.05;;
52798;SDS011;38667;42.872;74.622;2022-11-20T01:27:42;26.80;;;16.33;;
52798;SDS011;38667;42.872;74.622;2022-11-20T01:30:08;19.17;;;10.57;;
52798;SDS011;38667;42.872;74.622;2022-11-20T01:32:35;13.60;;;7.53;;
52798;SDS011;38667;42.872;74.622;2022-11-20T01:35:02;22.83;;;12.13;;
52798;SDS011;38667;42.872;74.622;2022-11-20T01:37:28;85.13;;;37.88;;
52798;SDS011;38667;42.872;74.622;2022-11-20T01:39:56;67.55;;;31.23;;
52798;SDS011;38667;42.872;74.622;2022-11-20T01:42:23;50.28;;;24.38;;
52798;SDS011;38667;42.872;74.622;2022-11-20T01:44:51;45.60;;;23.23;;
52798;SDS011;38667;42.872;74.622;2022-11-20T01:47:20;49.92;;;23.77;;
52798;SDS011;38667;42.872;74.622;2022-11-20T01:49:58;44.50;;;22.65;;
52798;SDS011;38667;42.872;74.622;2022-11-20T01:52:29;30.45;;;14.80;;
52798;SDS011;38667;42.872;74.622;2022-11-20T01:55:00;23.15;;;12.75;;
52798;SDS011;38667;42.872;74.622;2022-11-20T01:57:32;29.60;;;16.70;;
52798;SDS011;38667;42.872;74.622;2022-11-20T02:00:02;34.20;;;18.85;;
52798;SDS011;38667;42.872;74.622;2022-11-20T02:02:31;35.22;;;19.77;;
52798;SDS011;38667;42.872;74.622;2022-11-20T02:05:00;38.88;;;20.20;;
52798;SDS011;38667;42.872;74.622;2022-11-20T02:07:34;32.13;;;17.40;;
52798;SDS011;38667;42.872;74.622;2022-11-20T02:10:01;32.17;;;18.58;;
52798;SDS011;38667;42.872;74.622;2022-11-20T02:12:28;27.98;;;15.82;;
52798;SDS011;38667;42.872;74.622;2022-11-20T02:14:56;16.30;;;10.55;;
52798;SDS011;38667;42.872;74.622;2022-11-20T02:17:22;11.77;;;6.85;;
52798;SDS011;38667;42.872;74.622;2022-11-20T02:19:49;9.80;;;5.35;;
52798;SDS011;38667;42.872;74.622;2022-11-20T02:22:17;10.73;;;6.20;;
52798;SDS011;38667;42.872;74.622;2022-11-20T02:24:52;11.27;;;6.10;;
52798;SDS011;38667;42.872;74.622;2022-11-20T02:27:19;12.60;;;8.13;;
52798;SDS011;38667;42.872;74.622;2022-11-20T02:29:47;14.25;;;8.63;;
52798;SDS011;38667;42.872;74.622;2022-11-20T02:32:19;18.40;;;10.63;;
52798;SDS011;38667;42.872;74.622;2022-11-20T02:34:47;19.98;;;11.73;;
52798;SDS011;38667;42.872;74.622;2022-11-20T02:37:13;22.25;;;12.70;;
52798;SDS011;38667;42.872;74.622;2022-11-20T02:39:40;24.83;;;13.52;;
52798;SDS011;38667;42.872;74.622;2022-11-20T02:42:09;27.40;;;14.80;;
52798;SDS011;38667;42.872;74.622;2022-11-20T02:44:36;26.70;;;15.73;;
52798;SDS011;38667;42.872;74.622;2022-11-20T02:47:02;45.40;;;21.38;;
52798;SDS011;38667;42.872;74.622;2022-11-20T02:49:28;44.85;;;22.55;;
52798;SDS011;38667;42.872;74.622;2022-11-20T02:51:55;63.92;;;33.50;;
52798;SDS011;38667;42.872;74.622;2022-11-20T02:54:21;56.88;;;31.85;;
52798;SDS011;38667;42.872;74.622;2022-11-20T02:56:47;59.28;;;32.58;;
52798;SDS011;38667;42.872;74.622;2022-11-20T02:59:15;64.30;;;34.33;;
52798;SDS011;38667;42.872;74.622;2022-11-20T03:01:42;52.72;;;27.52;;
52798;SDS011;38667;42.872;74.622;2022-11-20T03:04:08;48.55;;;25.63;;
52798;SDS011;38667;42.872;74.622;2022-11-20T03:06:34;35.05;;;18.27;;
52798;SDS011;38667;42.872;74.622;2022-11-20T03:09:01;14.55;;;8.77;;
52798;SDS011;38667;42.872;74.622;2022-11-20T03:11:27;16.95;;;8.48;;
52798;SDS011;38667;42.872;74.622;2022-11-20T03:13:54;12.77;;;6.90;;
52798;SDS011;38667;42.872;74.622;2022-11-20T03:16:22;10.63;;;7.30;;
52798;SDS011;38667;42.872;74.622;2022-11-20T03:18:49;16.40;;;7.25;;
52798;SDS011;38667;42.872;74.622;2022-11-20T03:21:17;13.65;;;6.13;;
52798;SDS011;38667;42.872;74.622;2022-11-20T03:23:43;18.38;;;7.72;;
52798;SDS011;38667;42.872;74.622;2022-11-20T03:26:10;16.85;;;7.65;;
52798;SDS011;38667;42.872;74.622;2022-11-20T03:28:38;20.20;;;9.77;;
52798;SDS011;38667;42.872;74.622;2022-11-20T03:31:05;18.90;;;9.52;;
52798;SDS011;38667;42.872;74.622;2022-11-20T03:33:34;22.95;;;10.35;;
52798;SDS011;38667;42.872;74.622;2022-11-20T03:36:01;22.95;;;9.80;;
52798;SDS011;38667;42.872;74.622;2022-11-20T03:38:28;17.83;;;9.27;;
52798;SDS011;38667;42.872;74.622;2022-11-20T03:40:57;16.42;;;8.88;;
52798;SDS011;38667;42.872;74.622;2022-11-20T03:43:24;15.80;;;8.18;;
52798;SDS011;38667;42.872;74.622;2022-11-20T03:45:50;16.27;;;7.25;;
52798;SDS011;38667;42.872;74.622;2022-11-20T03:48:17;18.33;;;7.10;;
52798;SDS011;38667;42.872;74.622;2022-11-20T03:50:45;14.48;;;7.95;;
52798;SDS011;38667;42.872;74.622;2022-11-20T03:53:11;14.02;;;7.30;;
52798;SDS011;38667;42.872;74.622;2022-11-20T03:55:37;14.48;;;7.60;;
52798;SDS011;38667;42.872;74.622;2022-11-20T03:58:03;15.68;;;7.20;;
52798;SDS011;38667;42.872;74.622;2022-11-20T04:00:30;11.45;;;6.88;;
52798;SDS011;38667;42.872;74.622;2022-11-20T04:02:57;12.73;;;7.15;;
52798;SDS011;38667;42.872;74.622;2022-11-20T04:05:24;15.52;;;6.70;;
52798;SDS011;38667;42.872;74.622;2022-11-20T04:07:52;14.98;;;6.88;;
52798;SDS011;38667;42.872;74.622;2022-11-20T04:10:18;13.40;;;6.32;;
52798;SDS011;38667;42.872;74.622;2022-11-20T04:12:44;11.73;;;6.55;;
52798;SDS011;38667;42.872;74.622;2022-11-20T04:15:11;10.95;;;6.25;;
52798;SDS011;38667;42.872;74.622;2022-11-20T04:17:37;19.42;;;9.13;;
52798;SDS011;38667;42.872;74.622;2022-11-20T04:20:04;17.77;;;7.18;;
52798;SDS011;38667;42.872;74.622;2022-11-20T04:22:31;13.07;;;7.57;;
52798;SDS011;38667;42.872;74.622;2022-11-20T04:24:58;20.00;;;9.48;;
52798;SDS011;38667;42.872;74.622;2022-11-20T04:27:25;22.88;;;12.65;;
52798;SDS011;38667;42.872;74.622;2022-11-20T04:29:51;25.95;;;12.02;;
52798;SDS011;38667;42.872;74.622;2022-11-20T04:32:17;21.60;;;11.55;;
52798;SDS011;38667;42.872;74.622;2022-11-20T04:34:44;23.50;;;10.68;;
52798;SDS011;38667;42.872;74.622;2022-11-20T04:37:10;18.48;;;9.70;;
52798;SDS011;38667;42.872;74.622;2022-11-20T04:39:36;17.60;;;9.93;;
52798;SDS011;38667;42.872;74.622;2022-11-20T04:42:04;15.73;;;9.70;;
52798;SDS011;38667;42.872;74.622;2022-11-20T04:44:30;22.23;;;9.43;;
52798;SDS011;38667;42.872;74.622;2022-11-20T04:46:56;22.58;;;9.80;;
52798;SDS011;38667;42.872;74.622;2022-11-20T04:49:23;18.17;;;8.25;;
52798;SDS011;38667;42.872;74.622;2022-11-20T04:51:49;13.45;;;7.40;;
52798;SDS011;38667;42.872;74.622;2022-11-20T04:54:18;19.02;;;8.63;;
52798;SDS011;38667;42.872;74.622;2022-11-20T04:56:45;15.35;;;7.25;;
52798;SDS011;38667;42.872;74.622;2022-11-20T04:59:14;15.57;;;7.68;;
52798;SDS011;38667;42.872;74.622;2022-11-20T05:01:41;11.02;;;5.53;;
52798;SDS011;38667;42.872;74.622;2022-11-20T05:04:07;13.02;;;5.85;;
52798;SDS011;38667;42.872;74.622;2022-11-20T05:06:33;12.70;;;5.90;;
52798;SDS011;38667;42.872;74.622;2022-11-20T05:09:00;10.10;;;5.10;;
52798;SDS011;38667;42.872;74.622;2022-11-20T05:11:26;9.48;;;4.43;;
52798;SDS011;38667;42.872;74.622;2022-11-20T05:13:53;15.60;;;5.85;;
52798;SDS011;38667;42.872;74.622;2022-11-20T05:16:21;7.93;;;3.83;;
52798;SDS011;38667;42.872;74.622;2022-11-20T05:18:48;7.03;;;4.07;;
52798;SDS011;38667;42.872;74.622;2022-11-20T05:21:15;7.47;;;3.60;;
52798;SDS011;38667;42.872;74.622;2022-11-20T05:23:42;6.60;;;3.60;;
52798;SDS011;38667;42.872;74.622;2022-11-20T05:26:11;7.25;;;4.00;;
52798;SDS011;38667;42.872;74.622;2022-11-20T05:28:39;5.55;;;3.60;;
52798;SDS011;38667;42.872;74.622;2022-11-20T05:31:05;7.13;;;3.65;;
52798;SDS011;38667;42.872;74.622;2022-11-20T05:33:34;10.15;;;4.40;;
52798;SDS011;38667;42.872;74.622;2022-11-20T05:36:01;8.55;;;4.18;;
52798;SDS011;38667;42.872;74.622;2022-11-20T05:38:28;8.77;;;3.97;;
52798;SDS011;38667;42.872;74.622;2022-11-20T05:40:55;8.88;;;4.07;;
52798;SDS011;38667;42.872;74.622;2022-11-20T05:43:27;9.80;;;4.18;;
52798;SDS011;38667;42.872;74.622;2022-11-20T05:45:56;9.45;;;3.80;;
52798;SDS011;38667;42.872;74.622;2022-11-20T05:48:22;19.85;;;4.65;;
52798;SDS011;38667;42.872;74.622;2022-11-20T05:50:50;13.93;;;4.90;;
52798;SDS011;38667;42.872;74.622;2022-11-20T05:53:16;24.92;;;7.20;;
52798;SDS011;38667;42.872;74.622;2022-11-20T05:55:43;14.27;;;5.78;;
52798;SDS011;38667;42.872;74.622;2022-11-20T05:58:09;13.15;;;5.63;;
52798;SDS011;38667;42.872;74.622;2022-11-20T06:00:35;10.15;;;4.95;;
52798;SDS011;38667;42.872;74.622;2022-11-20T06:03:02;13.23;;;5.32;;
52798;SDS011;38667;42.872;74.622;2022-11-20T06:05:28;16.35;;;4.55;;
52798;SDS011;38667;42.872;74.622;2022-11-20T06:07:56;8.88;;;5.03;;
52798;SDS011;38667;42.872;74.622;2022-11-20T06:10:22;9.00;;;4.95;;
52798;SDS011;38667;42.872;74.622;2022-11-20T06:12:48;14.10;;;4.50;;
52798;SDS011;38667;42.872;74.622;2022-11-20T06:15:15;6.22;;;4.80;;
52798;SDS011;38667;42.872;74.622;2022-11-20T06:17:41;9.07;;;4.80;;
52798;SDS011;38667;42.872;74.622;2022-11-20T06:20:08;12.85;;;4.68;;
52798;SDS011;38667;42.872;74.622;2022-11-20T06:22:35;14.88;;;5.60;;
52798;SDS011;38667;42.872;74.622;2022-11-20T06:25:03;13.38;;;5.32;;
52798;SDS011;38667;42.872;74.622;2022-11-20T06:27:29;8.80;;;5.07;;
52798;SDS011;38667;42.872;74.622;2022-11-20T06:29:55;10.27;;;4.78;;
52798;SDS011;38667;42.872;74.622;2022-11-20T06:32:22;22.98;;;6.95;;
52798;SDS011;38667;42.872;74.622;2022-11-20T06:34:48;10.48;;;5.05;;
52798;SDS011;38667;42.872;74.622;2022-11-20T06:37:14;15.40;;;5.97;;
52798;SDS011;38667;42.872;74.622;2022-11-20T06:39:41;14.77;;;6.05;;
52798;SDS011;38667;42.872;74.622;2022-11-20T06:42:08;15.57;;;5.88;;
52798;SDS011;38667;42.872;74.622;2022-11-20T06:44:35;12.82;;;6.00;;
52798;SDS011;38667;42.872;74.622;2022-11-20T06:47:01;9.75;;;5.40;;
52798;SDS011;38667;42.872;74.622;2022-11-20T06:49:27;11.85;;;5.13;;
52798;SDS011;38667;42.872;74.622;2022-11-20T06:51:53;15.35;;;6.10;;
52798;SDS011;38667;42.872;74.622;2022-11-20T06:54:20;19.50;;;5.93;;
52798;SDS011;38667;42.872;74.622;2022-11-20T06:56:46;9.77;;;5.30;;
52798;SDS011;38667;42.872;74.622;2022-11-20T06:59:14;9.32;;;5.22;;
52798;SDS011;38667;42.872;74.622;2022-11-20T07:01:40;14.85;;;5.50;;
52798;SDS011;38667;42.872;74.622;2022-11-20T07:04:07;13.93;;;5.63;;
52798;SDS011;38667;42.872;74.622;2022-11-20T07:06:33;12.10;;;5.78;;
52798;SDS011;38667;42.872;74.622;2022-11-20T07:08:59;12.05;;;5.85;;
52798;SDS011;38667;42.872;74.622;2022-11-20T07:11:26;8.80;;;5.45;;
52798;SDS011;38667;42.872;74.622;2022-11-20T07:13:52;13.60;;;6.70;;
52798;SDS011;38667;42.872;74.622;2022-11-20T07:16:20;13.57;;;6.18;;
52798;SDS011;38667;42.872;74.622;2022-11-20T07:18:46;10.38;;;5.80;;
52798;SDS011;38667;42.872;74.622;2022-11-20T07:21:12;12.82;;;6.47;;
52798;SDS011;38667;42.872;74.622;2022-11-20T07:23:39;15.02;;;7.00;;
52798;SDS011;38667;42.872;74.622;2022-11-20T07:26:06;12.23;;;6.47;;
52798;SDS011;38667;42.872;74.622;2022-11-20T07:28:33;13.25;;;6.03;;
52798;SDS011;38667;42.872;74.622;2022-11-20T07:31:00;10.63;;;5.20;;
52798;SDS011;38667;42.872;74.622;2022-11-20T07:33:28;18.25;;;5.97;;
52798;SDS011;38667;42.872;74.622;2022-11-20T07:35:54;13.90;;;6.70;;
52798;SDS011;38667;42.872;74.622;2022-11-20T07:38:20;14.30;;;6.18;;
52798;SDS011;38667;42.872;74.622;2022-11-20T07:40:47;11.35;;;5.82;;
52798;SDS011;38667;42.872;74.622;2022-11-20T07:43:13;8.43;;;5.30;;
52798;SDS011;38667;42.872;74.622;2022-11-20T07:45:39;12.82;;;6.60;;
52798;SDS011;38667;42.872;74.622;2022-11-20T07:48:05;14.00;;;5.55;;
52798;SDS011;38667;42.872;74.622;2022-11-20T07:50:33;8.63;;;4.57;;
52798;SDS011;38667;42.872;74.622;2022-11-20T07:53:01;9.25;;;4.95;;
52798;SDS011;38667;42.872;74.622;2022-11-20T07:55:28;12.75;;;5.53;;
52798;SDS011;38667;42.872;74.622;2022-11-20T07:57:55;12.43;;;6.10;;
52798;SDS011;38667;42.872;74.622;2022-11-20T08:00:21;12.27;;;5.32;;
52798;SDS011;38667;42.872;74.622;2022-11-20T08:02:48;17.88;;;6.93;;
52798;SDS011;38667;42.872;74.622;2022-11-20T08:05:14;13.02;;;6.05;;
52798;SDS011;38667;42.872;74.622;2022-11-20T08:07:43;11.73;;;5.70;;
52798;SDS011;38667;42.872;74.622;2022-11-20T08:10:10;10.38;;;5.68;;
52798;SDS011;38667;42.872;74.622;2022-11-20T08:12:43;12.02;;;5.50;;
52798;SDS011;38667;42.872;74.622;2022-11-20T08:15:10;10.02;;;5.10;;
52798;SDS011;38667;42.872;74.622;2022-11-20T08:17:36;10.57;;;5.65;;
52798;SDS011;38667;42.872;74.622;2022-11-20T08:20:03;10.57;;;5.22;;
52798;SDS011;38667;42.872;74.622;2022-11-20T08:22:29;16.42;;;5.50;;
52798;SDS011;38667;42.872;74.622;2022-11-20T08:24:57;13.95;;;6.57;;
52798;SDS011;38667;42.872;74.622;2022-11-20T08:27:24;18.20;;;5.85;;
52798;SDS011;38667;42.872;74.622;2022-11-20T08:29:50;12.52;;;5.35;;
52798;SDS011;38667;42.872;74.622;2022-11-20T08:32:16;14.85;;;5.30;;
52798;SDS011;38667;42.872;74.622;2022-11-20T08:34:42;11.80;;;5.28;;
52798;SDS011;38667;42.872;74.622;2022-11-20T08:37:09;15.15;;;6.63;;
52798;SDS011;38667;42.872;74.622;2022-11-20T08:39:35;10.82;;;6.13;;
52798;SDS011;38667;42.872;74.622;2022-11-20T08:42:06;10.25;;;5.60;;
52798;SDS011;38667;42.872;74.622;2022-11-20T08:44:32;11.48;;;5.03;;
52798;SDS011;38667;42.872;74.622;2022-11-20T08:46:58;12.73;;;5.55;;
52798;SDS011;38667;42.872;74.622;2022-11-20T08:49:26;14.35;;;5.80;;
52798;SDS011;38667;42.872;74.622;2022-11-20T08:51:52;12.20;;;5.80;;
52798;SDS011;38667;42.872;74.622;2022-11-20T08:54:18;12.82;;;5.75;;
52798;SDS011;38667;42.872;74.622;2022-11-20T08:56:45;10.38;;;6.00;;
52798;SDS011;38667;42.872;74.622;2022-11-20T08:59:12;13.73;;;7.07;;
52798;SDS011;38667;42.872;74.622;2022-11-20T09:01:39;13.60;;;6.88;;
52798;SDS011;38667;42.872;74.622;2022-11-20T09:04:05;11.32;;;7.07;;
52798;SDS011;38667;42.872;74.622;2022-11-20T09:06:31;17.45;;;6.57;;
52798;SDS011;38667;42.872;74.622;2022-11-20T09:08:58;11.63;;;6.47;;
52798;SDS011;38667;42.872;74.622;2022-11-20T09:11:24;16.88;;;6.75;;
52798;SDS011;38667;42.872;74.622;2022-11-20T09:13:50;16.35;;;7.43;;
52798;SDS011;38667;42.872;74.622;2022-11-20T09:16:18;16.83;;;7.72;;
52798;SDS011;38667;42.872;74.622;2022-11-20T09:18:44;15.95;;;7.18;;
52798;SDS011;38667;42.872;74.622;2022-11-20T09:21:11;13.52;;;6.97;;
52798;SDS011;38667;42.872;74.622;2022-11-20T09:23:38;17.65;;;7.40;;
52798;SDS011;38667;42.872;74.622;2022-11-20T09:26:05;13.50;;;6.40;;
52798;SDS011;38667;42.872;74.622;2022-11-20T09:28:32;14.88;;;6.82;;
52798;SDS011;38667;42.872;74.622;2022-11-20T09:30:58;19.27;;;7.00;;
52798;SDS011;38667;42.872;74.622;2022-11-20T09:33:27;10.00;;;6.50;;
52798;SDS011;38667;42.872;74.622;2022-11-20T09:35:53;14.70;;;6.90;;
52798;SDS011;38667;42.872;74.622;2022-11-20T09:38:20;13.60;;;7.20;;
52798;SDS011;38667;42.872;74.622;2022-11-20T09:40:48;16.60;;;7.47;;
52798;SDS011;38667;42.872;74.622;2022-11-20T09:43:21;11.70;;;6.95;;
52798;SDS011;38667;42.872;74.622;2022-11-20T09:46:02;17.70;;;7.38;;
52798;SDS011;38667;42.872;74.622;2022-11-20T09:48:42;11.60;;;7.55;;
52798;SDS011;38667;42.872;74.622;2022-11-20T09:51:20;11.43;;;7.07;;
52798;SDS011;38667;42.872;74.622;2022-11-20T09:53:56;18.95;;;7.55;;
52798;SDS011;38667;42.872;74.622;2022-11-20T09:56:30;18.27;;;8.77;;
52798;SDS011;38667;42.872;74.622;2022-11-20T09:59:03;15.85;;;6.97;;
52798;SDS011;38667;42.872;74.622;2022-11-20T10:01:32;15.32;;;6.90;;
52798;SDS011;38667;42.872;74.622;2022-11-20T10:04:03;16.27;;;6.68;;
52798;SDS011;38667;42.872;74.622;2022-11-20T10:06:32;18.40;;;7.30;;
52798;SDS011;38667;42.872;74.622;2022-11-20T10:09:05;14.50;;;7.32;;
52798;SDS011;38667;42.872;74.622;2022-11-20T10:11:44;14.35;;;7.57;;
52798;SDS011;38667;42.872;74.622;2022-11-20T10:14:21;18.70;;;8.10;;
52798;SDS011;38667;42.872;74.622;2022-11-20T10:17:02;13.00;;;7.72;;
52798;SDS011;38667;42.872;74.622;2022-11-20T10:19:45;15.98;;;7.57;;
52798;SDS011;38667;42.872;74.622;2022-11-20T10:22:25;17.40;;;7.97;;
52798;SDS011;38667;42.872;74.622;2022-11-20T10:25:05;24.17;;;11.45;;
52798;SDS011;38667;42.872;74.622;2022-11-20T10:27:48;32.97;;;15.60;;
52798;SDS011;38667;42.872;74.622;2022-11-20T10:30:30;22.95;;;10.57;;
52798;SDS011;38667;42.872;74.622;2022-11-20T10:33:00;22.50;;;10.63;;
52798;SDS011;38667;42.872;74.622;2022-11-20T10:35:37;18.63;;;10.57;;
52798;SDS011;38667;42.872;74.622;2022-11-20T10:38:09;23.65;;;11.45;;
52798;SDS011;38667;42.872;74.622;2022-11-20T10:40:50;20.00;;;12.55;;
52798;SDS011;38667;42.872;74.622;2022-11-20T10:43:24;26.50;;;13.30;;
52798;SDS011;38667;42.872;74.622;2022-11-20T10:45:58;31.10;;;13.10;;
52798;SDS011;38667;42.872;74.622;2022-11-20T10:48:29;25.75;;;13.07;;
52798;SDS011;38667;42.872;74.622;2022-11-20T10:51:01;35.42;;;13.80;;
52798;SDS011;38667;42.872;74.622;2022-11-20T10:53:47;32.85;;;13.43;;
52798;SDS011;38667;42.872;74.622;2022-11-20T10:56:24;27.05;;;12.18;;
52798;SDS011;38667;42.872;74.622;2022-11-20T10:59:21;32.40;;;12.05;;
52798;SDS011;38667;42.872;74.622;2022-11-20T11:02:16;31.90;;;13.10;;
52798;SDS011;38667;42.872;74.622;2022-11-20T11:04:45;21.98;;;12.15;;
52798;SDS011;38667;42.872;74.622;2022-11-20T11:07:14;25.63;;;10.27;;
52798;SDS011;38667;42.872;74.622;2022-11-20T11:09:44;24.27;;;10.40;;
52798;SDS011;38667;42.872;74.622;2022-11-20T11:12:13;25.88;;;12.82;;
52798;SDS011;38667;42.872;74.622;2022-11-20T11:14:47;29.48;;;14.88;;
52798;SDS011;38667;42.872;74.622;2022-11-20T11:17:24;23.85;;;13.35;;
52798;SDS011;38667;42.872;74.622;2022-11-20T11:19:59;29.05;;;13.40;;
52798;SDS011;38667;42.872;74.622;2022-11-20T11:22:29;22.95;;;13.10;;
52798;SDS011;38667;42.872;74.622;2022-11-20T11:24:56;34.75;;;14.63;;
52798;SDS011;38667;42.872;74.622;2022-11-20T11:27:23;38.83;;;14.48;;
52798;SDS011;38667;42.872;74.622;2022-11-20T11:29:49;26.90;;;14.60;;
52798;SDS011;38667;42.872;74.622;2022-11-20T11:32:26;32.55;;;15.20;;
52798;SDS011;38667;42.872;74.622;2022-11-20T11:34:59;47.60;;;17.58;;
52798;SDS011;38667;42.872;74.622;2022-11-20T11:37:26;31.75;;;17.67;;
52798;SDS011;38667;42.872;74.622;2022-11-20T11:40:01;39.75;;;18.70;;
52798;SDS011;38667;42.872;74.622;2022-11-20T11:42:28;42.50;;;19.80;;
52798;SDS011;38667;42.872;74.622;2022-11-20T11:44:55;35.80;;;19.25;;
52798;SDS011;38667;42.872;74.622;2022-11-20T11:47:24;46.30;;;22.67;;
52798;SDS011;38667;42.872;74.622;2022-11-20T11:50:00;55.45;;;28.02;;
52798;SDS011;38667;42.872;74.622;2022-11-20T11:52:41;58.38;;;28.85;;
52798;SDS011;38667;42.872;74.622;2022-11-20T11:55:12;53.03;;;27.90;;
52798;SDS011;38667;42.872;74.622;2022-11-20T11:57:43;49.90;;;26.98;;
52798;SDS011;38667;42.872;74.622;2022-11-20T12:00:15;45.40;;;25.17;;
52798;SDS011;38667;42.872;74.622;2022-11-20T12:02:47;51.33;;;24.70;;
52798;SDS011;38667;42.872;74.622;2022-11-20T12:05:22;46.28;;;26.60;;
52798;SDS011;38667;42.872;74.622;2022-11-20T12:07:52;49.55;;;25.88;;
52798;SDS011;38667;42.872;74.622;2022-11-20T12:10:28;52.72;;;26.05;;
52798;SDS011;38667;42.872;74.622;2022-11-20T12:13:08;50.72;;;27.20;;
52798;SDS011;38667;42.872;74.622;2022-11-20T12:15:44;54.30;;;27.90;;
52798;SDS011;38667;42.872;74.622;2022-11-20T12:18:14;65.78;;;32.20;;
52798;SDS011;38667;42.872;74.622;2022-11-20T12:20:44;55.25;;;30.00;;
52798;SDS011;38667;42.872;74.622;2022-11-20T12:23:21;57.08;;;30.45;;
52798;SDS011;38667;42.872;74.622;2022-11-20T12:25:54;54.60;;;29.27;;
52798;SDS011;38667;42.872;74.622;2022-11-20T12:28:36;56.33;;;29.98;;
52798;SDS011;38667;42.872;74.622;2022-11-20T12:31:22;55.45;;;31.65;;
52798;SDS011;38667;42.872;74.622;2022-11-20T12:34:10;58.88;;;30.65;;
52798;SDS011;38667;42.872;74.622;2022-11-20T12:36:46;46.38;;;26.50;;
52798;SDS011;38667;42.872;74.622;2022-11-20T12:42:14;55.40;;;27.30;;
52798;SDS011;38667;42.872;74.622;2022-11-20T12:45:01;49.90;;;26.45;;
52798;SDS011;38667;42.872;74.622;2022-11-20T12:47:38;48.83;;;28.35;;
52798;SDS011;38667;42.872;74.622;2022-11-20T12:50:28;63.67;;;32.50;;
52798;SDS011;38667;42.872;74.622;2022-11-20T12:53:03;63.85;;;35.25;;
52798;SDS011;38667;42.872;74.622;2022-11-20T12:55:39;76.18;;;38.08;;
52798;SDS011;38667;42.872;74.622;2022-11-20T12:58:17;83.43;;;40.53;;
52798;SDS011;38667;42.872;74.622;2022-11-20T13:00:52;80.28;;;41.67;;
52798;SDS011;38667;42.872;74.622;2022-11-20T13:03:29;69.07;;;39.53;;
52798;SDS011;38667;42.872;74.622;2022-11-20T13:06:05;71.15;;;39.35;;
52798;SDS011;38667;42.872;74.622;2022-11-20T13:08:39;68.90;;;37.30;;
52798;SDS011;38667;42.872;74.622;2022-11-20T13:11:12;67.82;;;36.35;;
52798;SDS011;38667;42.872;74.622;2022-11-20T13:13:59;70.93;;;36.45;;
52798;SDS011;38667;42.872;74.622;2022-11-20T13:16:44;67.45;;;33.00;;
52798;SDS011;38667;42.872;74.622;2022-11-20T13:19:15;63.95;;;32.92;;
52798;SDS011;38667;42.872;74.622;2022-11-20T13:21:43;57.05;;;30.55;;
52798;SDS011;38667;42.872;74.622;2022-11-20T13:24:20;54.65;;;30.33;;
52798;SDS011;38667;42.872;74.622;2022-11-20T13:26:58;49.55;;;28.98;;
52798;SDS011;38667;42.872;74.622;2022-11-20T13:29:29;46.47;;;25.83;;
52798;SDS011;38667;42.872;74.622;2022-11-20T13:32:02;49.63;;;27.60;;
52798;SDS011;38667;42.872;74.622;2022-11-20T13:34:31;58.85;;;29.40;;
52798;SDS011;38667;42.872;74.622;2022-11-20T13:36:58;55.53;;;28.30;;
52798;SDS011;38667;42.872;74.622;2022-11-20T13:39:25;55.45;;;30.33;;
52798;SDS011;38667;42.872;74.622;2022-11-20T13:41:57;63.28;;;32.63;;
52798;SDS011;38667;42.872;74.622;2022-11-20T13:44:25;64.13;;;32.05;;
52798;SDS011;38667;42.872;74.622;2022-11-20T13:46:58;59.83;;;33.03;;
52798;SDS011;38667;42.872;74.622;2022-11-20T13:49:26;65.38;;;32.38;;
52798;SDS011;38667;42.872;74.622;2022-11-20T13:51:57;61.63;;;31.58;;
52798;SDS011;38667;42.872;74.622;2022-11-20T13:54:42;56.90;;;33.10;;
52798;SDS011;38667;42.872;74.622;2022-11-20T13:57:25;60.22;;;33.70;;
52798;SDS011;38667;42.872;74.622;2022-11-20T14:00:07;58.30;;;31.60;;
52798;SDS011;38667;42.872;74.622;2022-11-20T14:02:37;63.53;;;33.88;;
52798;SDS011;38667;42.872;74.622;2022-11-20T14:05:04;60.90;;;33.90;;
52798;SDS011;38667;42.872;74.622;2022-11-20T14:07:39;68.95;;;33.88;;
52798;SDS011;38667;42.872;74.622;2022-11-20T14:10:18;56.90;;;32.15;;
52798;SDS011;38667;42.872;74.622;2022-11-20T14:12:47;59.78;;;32.08;;
52798;SDS011;38667;42.872;74.622;2022-11-20T14:15:23;65.35;;;35.50;;
52798;SDS011;38667;42.872;74.622;2022-11-20T14:17:52;65.35;;;34.67;;
52798;SDS011;38667;42.872;74.622;2022-11-20T14:20:18;78.13;;;38.92;;
52798;SDS011;38667;42.872;74.622;2022-11-20T14:22:48;73.05;;;41.05;;
52798;SDS011;38667;42.872;74.622;2022-11-20T14:25:18;77.93;;;43.08;;
52798;SDS011;38667;42.872;74.622;2022-11-20T14:27:47;98.82;;;49.25;;
52798;SDS011;38667;42.872;74.622;2022-11-20T14:30:18;105.93;;;54.47;;
52798;SDS011;38667;42.872;74.622;2022-11-20T14:32:46;105.55;;;55.10;;